KPDX/PDX METAR and TAF weather

Enter ICAO airport designator
Station Type Date Time Source
KPDX METAR 2021/09/25 01:53 UTC NOAA

KPDX 250153Z 00000KT 10SM FEW100 FEW180 28/08 A2982 RMK AO2 SLP097 T02830083


Station Type Date Time Source
KPDX Decoded METAR 2021/09/25 01:53 UTC NOAA

PORTLAND INTERNATIONAL AIRPORT, OR, United States (KPDX) 45-35N 122-36W 7M
Sep 24, 2021 - 09:53 PM EDT / 2021.09.25 0153 UTC
Wind: Calm:0
Visibility: 10 mile(s):0
Sky conditions: mostly clear
Temperature: 82.9 F (28.3 C)
Dew Point: 46.9 F (8.3 C)
Relative Humidity: 28%
Pressure (altimeter): 29.82 in. Hg (1009 hPa)
ob: KPDX 250153Z 00000KT 10SM FEW100 FEW180 28/08 A2982 RMK AO2 SLP097 T02830083
cycle: 2

Station Type Date Time Source
KPDX TAF 2021/09/24 21:51 UTC NOAA

TAF
AMD KPDX 242049Z 2421/2518 30006KT P6SM SKC
FM242300 05006KT P6SM SKC
FM250000 VRB03KT P6SM SKC

Example: see airport list